createdAt,value
2019-02-23T00:00:45.282Z,15.35
2019-02-23T00:03:14.721Z,16.07
2019-02-23T00:05:44.634Z,19.42
2019-02-23T00:08:14.137Z,18.17
2019-02-23T00:10:43.668Z,15.98
2019-02-23T00:13:13.589Z,12.68
2019-02-23T00:15:43.097Z,11.10
2019-02-23T00:18:12.854Z,12.30
2019-02-23T00:20:42.426Z,9.50
2019-02-23T00:23:11.866Z,10.65
2019-02-23T00:25:41.565Z,14.07
2019-02-23T00:28:10.987Z,9.55
2019-02-23T00:30:40.577Z,14.40
2019-02-23T00:33:10.168Z,11.83
2019-02-23T00:35:39.601Z,12.13
2019-02-23T00:38:09.225Z,10.08
2019-02-23T00:40:38.891Z,10.43
2019-02-23T00:43:08.374Z,8.05
2019-02-23T00:45:37.952Z,10.90
2019-02-23T00:48:07.365Z,13.13
2019-02-23T00:50:36.856Z,22.07
2019-02-23T00:53:06.460Z,19.00
2019-02-23T00:55:36.014Z,24.05
2019-02-23T00:58:05.432Z,18.00
2019-02-23T01:00:34.861Z,18.40
2019-02-23T01:03:04.471Z,17.65
2019-02-23T01:05:34.005Z,18.85
2019-02-23T01:08:03.481Z,20.88
2019-02-23T01:10:32.970Z,24.05
2019-02-23T01:13:02.723Z,19.37
2019-02-23T01:15:32.432Z,19.00
2019-02-23T01:18:02.340Z,19.35
2019-02-23T01:20:31.825Z,14.07
2019-02-23T01:23:01.355Z,18.90
2019-02-23T01:25:30.992Z,17.15
2019-02-23T01:28:00.758Z,14.45
2019-02-23T01:30:30.380Z,11.73
2019-02-23T01:32:59.948Z,12.60
2019-02-23T01:35:29.470Z,12.28
2019-02-23T01:37:59.185Z,11.35
2019-02-23T01:40:28.811Z,8.80
2019-02-23T01:42:58.357Z,7.60
2019-02-23T01:45:27.842Z,7.37
2019-02-23T01:47:57.618Z,20.37
2019-02-23T01:50:27.251Z,18.48
2019-02-23T01:52:56.787Z,12.58
2019-02-23T01:55:26.224Z,18.25
2019-02-23T01:57:55.638Z,8.98
2019-02-23T02:00:25.789Z,10.50
2019-02-23T02:02:55.214Z,9.48
2019-02-23T02:05:24.753Z,8.80
2019-02-23T02:07:54.173Z,6.90
2019-02-23T02:10:23.933Z,10.00
2019-02-23T02:12:53.346Z,15.72
2019-02-23T02:15:23.132Z,110.05
2019-02-23T02:17:52.628Z,53.08
2019-02-23T02:20:22.077Z,28.15
2019-02-23T02:22:51.522Z,22.67
2019-02-23T02:25:21.187Z,18.62
2019-02-23T02:27:50.731Z,17.15
2019-02-23T02:30:20.330Z,14.35
2019-02-23T02:32:49.884Z,14.73
2019-02-23T02:35:19.458Z,10.88
2019-02-23T02:37:48.993Z,12.25
2019-02-23T02:40:18.666Z,11.43
2019-02-23T02:42:48.475Z,8.35
2019-02-23T02:45:18.224Z,8.80
2019-02-23T02:47:47.714Z,9.00
2019-02-23T02:50:24.119Z,9.23
2019-02-23T02:52:48.574Z,9.10
2019-02-23T02:55:18.184Z,8.35
2019-02-23T02:57:47.817Z,8.80
2019-02-23T03:00:17.262Z,8.70
2019-02-23T03:02:46.799Z,8.48
2019-02-23T03:05:16.313Z,10.70
2019-02-23T03:07:47.351Z,18.05
2019-02-23T03:10:16.797Z,13.13
2019-02-23T03:12:46.336Z,10.43
2019-02-23T03:15:16.009Z,10.28
2019-02-23T03:17:45.534Z,9.23
2019-02-23T03:20:15.078Z,8.15
2019-02-23T03:22:44.612Z,9.10
2019-02-23T03:25:14.402Z,10.45
2019-02-23T03:27:44.124Z,9.08
2019-02-23T03:30:13.606Z,9.60
2019-02-23T03:32:43.241Z,8.73
2019-02-23T03:35:12.723Z,8.95
2019-02-23T03:37:42.345Z,9.45
2019-02-23T03:40:11.960Z,9.43
2019-02-23T03:42:41.568Z,8.70
2019-02-23T03:45:11.310Z,9.13
2019-02-23T03:47:40.857Z,8.23
2019-02-23T03:50:10.493Z,7.97
2019-02-23T03:52:40.196Z,8.43
2019-02-23T03:55:09.704Z,9.18
2019-02-23T03:57:39.348Z,8.53
2019-02-23T04:00:10.447Z,8.90
2019-02-23T04:02:39.931Z,8.30
2019-02-23T04:05:09.689Z,8.18
2019-02-23T04:07:39.189Z,9.15
2019-02-23T04:10:09.033Z,10.35
2019-02-23T04:12:38.713Z,10.85
2019-02-23T04:15:08.621Z,10.48
2019-02-23T04:17:39.651Z,11.95
2019-02-23T04:20:09.237Z,11.20
2019-02-23T04:22:39.015Z,14.65
2019-02-23T04:25:09.026Z,11.30
2019-02-23T04:27:38.495Z,10.80
2019-02-23T04:30:08.995Z,9.48
2019-02-23T04:32:38.625Z,10.28
2019-02-23T04:35:08.043Z,10.23
2019-02-23T04:37:37.691Z,10.50
2019-02-23T04:40:07.956Z,10.68
2019-02-23T04:42:37.418Z,9.93
2019-02-23T04:45:08.013Z,8.98
2019-02-23T04:47:37.557Z,10.72
2019-02-23T04:50:09.656Z,11.68
2019-02-23T04:52:39.332Z,13.40
2019-02-23T04:55:09.508Z,11.43
2019-02-23T04:57:39.070Z,14.83
2019-02-23T05:00:14.354Z,13.43
2019-02-23T05:02:43.898Z,13.32
2019-02-23T05:05:14.006Z,13.22
2019-02-23T05:07:43.606Z,15.15
2019-02-23T05:10:13.398Z,17.57
2019-02-23T05:12:43.187Z,16.55
2019-02-23T05:15:12.669Z,14.83
2019-02-23T05:17:42.265Z,12.78
2019-02-23T05:20:11.952Z,11.80
2019-02-23T05:22:41.427Z,14.50
2019-02-23T05:25:11.147Z,15.90
2019-02-23T05:27:40.625Z,13.05
2019-02-23T05:30:12.308Z,15.63
2019-02-23T05:32:42.103Z,16.87
2019-02-23T05:35:13.224Z,14.98
2019-02-23T05:37:42.763Z,17.95
2019-02-23T05:40:13.157Z,15.70
2019-02-23T05:42:42.762Z,13.08
2019-02-23T05:45:12.176Z,12.68
2019-02-23T05:47:41.732Z,15.38
2019-02-23T05:50:11.150Z,15.90
2019-02-23T05:52:40.615Z,17.10
2019-02-23T05:55:10.115Z,14.58
2019-02-23T05:57:39.759Z,13.48
2019-02-23T06:00:12.126Z,13.65
2019-02-23T06:02:44.761Z,13.98
2019-02-23T06:05:12.882Z,12.88
2019-02-23T06:07:42.637Z,13.85
2019-02-23T06:10:12.318Z,14.63
2019-02-23T06:12:41.878Z,14.35
2019-02-23T06:15:12.676Z,14.75
2019-02-23T06:17:42.362Z,14.28
2019-02-23T06:20:11.895Z,15.50
2019-02-23T06:22:41.558Z,16.23
2019-02-23T06:25:11.059Z,14.58
2019-02-23T06:27:40.908Z,15.03
2019-02-23T06:30:12.621Z,17.00
2019-02-23T06:32:42.123Z,19.02
2019-02-23T06:35:11.699Z,25.17
2019-02-23T06:37:41.246Z,33.10
2019-02-23T06:40:11.795Z,59.50
2019-02-23T06:42:41.377Z,77.65
2019-02-23T06:45:12.531Z,51.15
2019-02-23T06:47:41.999Z,46.55
2019-02-23T06:50:11.744Z,49.45
2019-02-23T06:52:41.561Z,41.13
2019-02-23T06:55:11.085Z,7.50
2019-02-23T06:57:40.895Z,6.08
2019-02-23T07:00:15.139Z,7.53
2019-02-23T07:02:44.799Z,8.65
2019-02-23T07:05:14.232Z,8.08
2019-02-23T07:07:43.885Z,7.45
2019-02-23T07:10:14.389Z,8.30
2019-02-23T07:12:44.029Z,8.33
2019-02-23T07:15:13.486Z,13.45
2019-02-23T07:17:43.148Z,25.32
2019-02-23T07:20:12.751Z,108.72
2019-02-23T07:22:42.384Z,21.52
2019-02-23T07:25:11.956Z,22.50
2019-02-23T07:27:41.439Z,24.75
2019-02-23T07:30:13.120Z,25.48
2019-02-23T07:32:42.621Z,30.32
2019-02-23T07:35:12.261Z,27.07
2019-02-23T07:37:41.724Z,41.98
2019-02-23T07:40:16.298Z,30.25
2019-02-23T07:42:45.745Z,26.10
2019-02-23T07:45:15.352Z,25.97
2019-02-23T07:47:44.875Z,29.63
2019-02-23T07:50:15.786Z,21.93
2019-02-23T07:52:45.300Z,21.85
2019-02-23T07:55:14.771Z,18.07
2019-02-23T07:57:44.241Z,11.25
2019-02-23T08:00:14.263Z,14.53
2019-02-23T08:02:43.820Z,12.45
2019-02-23T08:05:13.677Z,14.70
2019-02-23T08:07:43.281Z,20.35
2019-02-23T08:10:13.197Z,18.48
2019-02-23T08:12:42.584Z,14.80
2019-02-23T08:15:12.516Z,15.83
2019-02-23T08:17:41.951Z,14.35
2019-02-23T08:20:13.056Z,13.60
2019-02-23T08:22:42.660Z,10.53
2019-02-23T08:25:14.600Z,12.47
2019-02-23T08:27:44.029Z,13.85
2019-02-23T08:30:16.293Z,14.93
2019-02-23T08:32:45.837Z,14.93
2019-02-23T08:35:15.310Z,18.07
2019-02-23T08:37:44.780Z,15.38
2019-02-23T08:40:16.048Z,12.80
2019-02-23T08:42:45.586Z,14.83
2019-02-23T08:45:15.020Z,14.05
2019-02-23T08:47:44.654Z,16.10
2019-02-23T08:50:15.299Z,18.60
2019-02-23T08:52:49.056Z,20.25
2019-02-23T08:55:16.357Z,14.18
2019-02-23T08:57:46.117Z,20.10
2019-02-23T09:00:20.677Z,18.02
2019-02-23T09:02:50.596Z,14.55
2019-02-23T09:05:20.065Z,11.55
2019-02-23T09:07:49.698Z,15.10
2019-02-23T09:10:19.348Z,16.65
2019-02-23T09:12:49.008Z,12.28
2019-02-23T09:15:18.488Z,15.55
2019-02-23T09:17:47.950Z,13.08
2019-02-23T09:20:28.261Z,9.13
2019-02-23T09:22:59.512Z,10.72
2019-02-23T09:25:19.885Z,7.08
2019-02-23T09:27:49.470Z,4.35
2019-02-23T09:30:18.881Z,5.75
2019-02-23T09:32:48.484Z,4.80
2019-02-23T09:35:17.975Z,5.05
2019-02-23T09:37:47.601Z,4.40
2019-02-23T09:40:18.974Z,4.97
2019-02-23T09:42:48.662Z,5.25
2019-02-23T09:45:18.158Z,5.25
2019-02-23T09:47:47.752Z,4.60
2019-02-23T09:50:17.243Z,6.37
2019-02-23T09:52:46.778Z,5.60
2019-02-23T09:55:16.235Z,4.50
2019-02-23T09:57:45.767Z,6.85
2019-02-23T10:00:15.292Z,10.58
2019-02-23T10:02:44.700Z,8.50
2019-02-23T10:05:14.241Z,6.92
2019-02-23T10:07:43.884Z,6.72
2019-02-23T10:10:13.489Z,5.60
2019-02-23T10:12:43.099Z,5.03
2019-02-23T10:15:12.628Z,4.55
2019-02-23T10:17:42.081Z,4.42
2019-02-23T10:20:13.084Z,3.90
2019-02-23T10:22:42.500Z,4.40
2019-02-23T10:25:12.044Z,4.95
2019-02-23T10:27:41.685Z,3.90
2019-02-23T10:30:13.554Z,6.28
2019-02-23T10:32:43.153Z,5.83
2019-02-23T10:35:13.724Z,4.47
2019-02-23T10:37:43.131Z,4.67
2019-02-23T10:40:13.302Z,5.45
2019-02-23T10:42:42.954Z,6.33
2019-02-23T10:45:13.392Z,6.08
2019-02-23T10:47:42.891Z,4.78
2019-02-23T10:50:14.202Z,5.03
2019-02-23T10:52:43.772Z,5.97
2019-02-23T10:55:14.737Z,4.97
2019-02-23T10:57:44.147Z,6.12
2019-02-23T11:00:17.871Z,6.60
2019-02-23T11:02:47.590Z,4.10
2019-02-23T11:05:17.459Z,5.00
2019-02-23T11:07:47.287Z,4.35
2019-02-23T11:10:17.915Z,4.75
2019-02-23T11:12:47.391Z,6.37
2019-02-23T11:15:19.118Z,5.47
2019-02-23T11:17:48.703Z,8.13
2019-02-23T11:20:18.360Z,4.30
2019-02-23T11:22:48.217Z,2.80
2019-02-23T11:25:18.127Z,4.72
2019-02-23T11:27:47.947Z,4.00
2019-02-23T11:30:17.418Z,3.37
2019-02-23T11:32:47.242Z,3.00
2019-02-23T11:35:17.646Z,3.45
2019-02-23T11:37:47.453Z,3.40
2019-02-23T11:40:17.328Z,4.05
2019-02-23T11:42:46.733Z,4.28
2019-02-23T11:45:16.226Z,3.72
2019-02-23T11:47:45.821Z,5.08
2019-02-23T11:50:15.658Z,6.75
2019-02-23T11:52:45.131Z,5.10
2019-02-23T11:55:15.288Z,3.58
2019-02-23T11:57:44.869Z,5.45
2019-02-23T12:00:15.167Z,3.90
2019-02-23T12:02:52.124Z,5.40
2019-02-23T12:05:15.691Z,4.05
2019-02-23T12:07:45.269Z,4.17
2019-02-23T12:10:16.482Z,4.42
2019-02-23T12:12:46.055Z,5.70
2019-02-23T12:15:15.821Z,6.30
2019-02-23T12:17:45.430Z,4.83
2019-02-23T12:20:15.169Z,6.15
2019-02-23T12:22:44.628Z,12.75
2019-02-23T12:25:16.197Z,6.95
2019-02-23T12:27:45.635Z,10.10
2019-02-23T12:30:15.335Z,7.97
2019-02-23T12:32:44.807Z,6.92
2019-02-23T12:35:14.332Z,7.60
2019-02-23T12:37:43.939Z,9.95
2019-02-23T12:40:13.660Z,15.53
2019-02-23T12:42:43.231Z,21.45
2019-02-23T12:45:13.584Z,12.73
2019-02-23T12:47:43.139Z,18.00
2019-02-23T12:50:13.494Z,6.50
2019-02-23T12:52:43.105Z,4.90
2019-02-23T12:55:12.741Z,6.08
2019-02-23T12:57:42.299Z,5.78
2019-02-23T13:00:14.770Z,5.47
2019-02-23T13:02:44.199Z,6.17
2019-02-23T13:05:13.661Z,7.20
2019-02-23T13:07:43.437Z,6.87
2019-02-23T13:10:13.526Z,5.50
2019-02-23T13:12:58.846Z,6.62
2019-02-23T13:16:00.594Z,6.45
2019-02-23T13:18:53.846Z,6.00
2019-02-23T13:21:41.565Z,6.75
2019-02-23T13:24:27.797Z,6.03
2019-02-23T13:27:06.736Z,7.97
2019-02-23T13:29:57.577Z,7.00
2019-02-23T13:32:30.474Z,6.55
2019-02-23T13:35:21.493Z,6.45
2019-02-23T13:38:03.823Z,5.65
2019-02-23T13:40:45.148Z,6.92
2019-02-23T13:43:23.879Z,5.80
2019-02-23T13:46:14.470Z,6.55
2019-02-23T13:49:02.383Z,6.55
2019-02-23T13:51:50.278Z,6.25
2019-02-23T13:54:39.158Z,6.05
2019-02-23T13:57:36.419Z,5.75
2019-02-23T14:00:24.048Z,5.20
2019-02-23T14:03:11.908Z,5.35
2019-02-23T14:05:44.653Z,4.97
2019-02-23T14:08:36.913Z,3.90
2019-02-23T14:11:15.619Z,6.47
2019-02-23T14:13:51.039Z,6.75
2019-02-23T14:16:42.216Z,4.92
2019-02-23T14:19:17.873Z,4.80
2019-02-23T14:22:11.721Z,5.60
2019-02-23T14:25:01.176Z,5.37
2019-02-23T14:27:53.140Z,5.90
2019-02-23T14:30:44.073Z,5.33
2019-02-23T14:33:48.701Z,8.33
2019-02-23T14:36:55.035Z,6.12
2019-02-23T14:39:36.559Z,6.10
2019-02-23T14:42:30.396Z,4.65
2019-02-23T14:45:23.359Z,5.65
2019-02-23T14:48:18.591Z,7.08
2019-02-23T14:51:20.847Z,6.17
2019-02-23T14:54:11.665Z,15.05
2019-02-23T14:57:17.946Z,5.87
2019-02-23T14:59:59.716Z,10.63
2019-02-23T15:03:04.640Z,5.83
2019-02-23T15:06:07.846Z,7.03
2019-02-23T15:08:57.440Z,6.05
2019-02-23T15:11:46.783Z,5.35
2019-02-23T15:14:25.322Z,5.87
2019-02-23T15:17:13.169Z,4.78
2019-02-23T15:19:46.219Z,6.10
2019-02-23T15:22:21.951Z,5.90
2019-02-23T15:25:12.847Z,7.42
2019-02-23T15:27:57.242Z,7.05
2019-02-23T15:30:44.285Z,15.15
2019-02-23T15:33:28.758Z,12.75
2019-02-23T15:36:03.380Z,8.03
2019-02-23T15:38:55.562Z,8.53
2019-02-23T15:41:46.184Z,13.22
2019-02-23T15:44:22.079Z,10.13
2019-02-23T15:47:09.026Z,9.25
2019-02-23T15:49:38.666Z,7.30
2019-02-23T15:52:08.842Z,6.92
2019-02-23T15:54:38.445Z,12.13
2019-02-23T15:57:08.161Z,33.90
2019-02-23T15:59:37.588Z,11.97
2019-02-23T16:02:07.251Z,11.25
2019-02-23T16:04:36.814Z,10.95
2019-02-23T16:07:06.493Z,11.22
2019-02-23T16:09:36.307Z,10.88
2019-02-23T16:12:05.996Z,8.25
2019-02-23T16:14:35.856Z,12.23
2019-02-23T16:17:05.426Z,7.83
2019-02-23T16:19:35.094Z,8.55
2019-02-23T16:22:04.628Z,7.65
2019-02-23T16:24:34.178Z,7.08
2019-02-23T16:27:03.928Z,7.78
2019-02-23T16:29:38.640Z,8.28
2019-02-23T16:32:04.855Z,9.63
2019-02-23T16:34:34.581Z,10.90
2019-02-23T16:37:04.300Z,9.48
2019-02-23T16:39:33.828Z,15.60
2019-02-23T16:42:03.332Z,11.28
2019-02-23T16:44:32.799Z,11.63
2019-02-23T16:47:02.447Z,11.15
2019-02-23T16:49:32.121Z,12.37
2019-02-23T16:52:01.616Z,10.53
2019-02-23T16:54:31.328Z,23.50
2019-02-23T16:57:00.789Z,20.88
2019-02-23T16:59:30.454Z,21.35
2019-02-23T17:01:59.935Z,16.52
2019-02-23T17:04:29.489Z,11.45
2019-02-23T17:06:58.984Z,12.37
2019-02-23T17:09:28.663Z,13.95
2019-02-23T17:12:01.776Z,8.98
2019-02-23T17:14:30.219Z,13.45
2019-02-23T17:16:59.781Z,13.60
2019-02-23T17:19:30.037Z,12.78
2019-02-23T17:21:59.526Z,22.82
2019-02-23T17:24:29.095Z,36.83
2019-02-23T17:26:58.521Z,14.90
2019-02-23T17:29:28.023Z,10.93
2019-02-23T17:31:57.689Z,12.15
2019-02-23T17:34:27.261Z,14.95
2019-02-23T17:36:56.926Z,14.00
2019-02-23T17:39:26.481Z,11.85
2019-02-23T17:41:56.035Z,23.75
2019-02-23T17:44:25.700Z,22.37
2019-02-23T17:46:56.996Z,28.07
2019-02-23T17:49:26.481Z,20.95
2019-02-23T17:51:55.945Z,21.70
2019-02-23T17:54:25.403Z,19.17
2019-02-23T17:56:55.164Z,16.20
2019-02-23T17:59:24.733Z,10.00
2019-02-23T18:01:54.425Z,18.02
2019-02-23T18:04:23.961Z,16.45
2019-02-23T18:06:53.567Z,13.45
2019-02-23T18:09:23.120Z,16.82
2019-02-23T18:11:52.624Z,21.00
2019-02-23T18:14:22.075Z,22.85
2019-02-23T18:16:51.656Z,16.27
2019-02-23T18:19:21.394Z,19.02
2019-02-23T18:21:50.928Z,19.10
2019-02-23T18:24:20.473Z,19.27
2019-02-23T18:26:50.122Z,15.68
2019-02-23T18:29:19.632Z,14.60
2019-02-23T18:31:49.220Z,13.13
2019-02-23T18:34:18.798Z,18.17
2019-02-23T18:36:48.300Z,13.80
2019-02-23T18:39:18.075Z,11.57
2019-02-23T18:41:47.614Z,14.60
2019-02-23T18:44:17.111Z,14.65
2019-02-23T18:46:46.524Z,13.78
2019-02-23T18:49:16.057Z,13.28
2019-02-23T18:51:45.793Z,17.98
2019-02-23T18:54:15.705Z,19.92
2019-02-23T18:56:45.423Z,19.30
2019-02-23T18:59:14.934Z,17.92
2019-02-23T19:01:44.642Z,14.60
2019-02-23T19:04:14.113Z,13.45
2019-02-23T19:06:43.954Z,15.68
2019-02-23T19:09:13.579Z,14.50
2019-02-23T19:11:43.200Z,15.80
2019-02-23T19:14:12.658Z,12.85
2019-02-23T19:16:42.200Z,13.13
2019-02-23T19:19:11.623Z,14.18
2019-02-23T19:21:41.085Z,14.75
2019-02-23T19:24:10.878Z,16.85
2019-02-23T19:26:40.548Z,14.13
2019-02-23T19:29:09.959Z,12.55
2019-02-23T19:31:39.826Z,14.35
2019-02-23T19:34:09.532Z,15.50
2019-02-23T19:36:39.085Z,13.95
2019-02-23T19:39:08.646Z,13.10
2019-02-23T19:41:38.247Z,15.53
2019-02-23T19:44:07.926Z,16.73
2019-02-23T19:46:40.746Z,14.93
2019-02-23T19:49:10.236Z,10.43
2019-02-23T19:51:40.110Z,17.57
2019-02-23T19:54:09.750Z,15.80
2019-02-23T19:56:46.656Z,18.27
2019-02-23T19:59:10.929Z,13.32
2019-02-23T20:01:40.601Z,12.65
2019-02-23T20:04:10.116Z,15.45
2019-02-23T20:06:39.846Z,12.88
2019-02-23T20:09:09.395Z,16.42
2019-02-23T20:11:38.866Z,11.53
2019-02-23T20:14:08.343Z,12.28
2019-02-23T20:16:37.998Z,11.40
2019-02-23T20:19:07.601Z,14.55
2019-02-23T20:21:37.155Z,13.68
2019-02-23T20:24:06.704Z,11.50
2019-02-23T20:26:36.437Z,11.00
2019-02-23T20:29:05.952Z,13.62
2019-02-23T20:31:35.371Z,11.48
2019-02-23T20:34:04.937Z,12.85
2019-02-23T20:36:34.670Z,11.48
2019-02-23T20:39:04.995Z,11.12
2019-02-23T20:41:34.478Z,12.23
2019-02-23T20:44:03.959Z,10.18
2019-02-23T20:46:33.453Z,13.78
2019-02-23T20:49:03.075Z,13.22
2019-02-23T20:51:32.610Z,12.05
2019-02-23T20:54:02.131Z,11.88
2019-02-23T20:56:31.828Z,12.65
2019-02-23T20:59:01.294Z,13.22
2019-02-23T21:01:30.963Z,12.40
2019-02-23T21:04:00.395Z,13.40
2019-02-23T21:06:30.041Z,12.85
2019-02-23T21:08:59.592Z,11.75
2019-02-23T21:11:29.199Z,10.30
2019-02-23T21:13:58.785Z,10.40
2019-02-23T21:16:28.594Z,11.68
2019-02-23T21:18:58.278Z,13.58
2019-02-23T21:21:27.784Z,12.53
2019-02-23T21:23:57.337Z,13.03
2019-02-23T21:26:26.847Z,10.28
2019-02-23T21:28:56.293Z,9.55
2019-02-23T21:31:25.931Z,13.90
2019-02-23T21:33:55.396Z,14.30
2019-02-23T21:36:24.934Z,15.75
2019-02-23T21:38:54.388Z,14.05
2019-02-23T21:41:23.888Z,14.43
2019-02-23T21:43:53.468Z,13.85
2019-02-23T21:46:23.022Z,13.40
2019-02-23T21:48:52.578Z,14.95
2019-02-23T21:51:22.153Z,13.43
2019-02-23T21:53:51.708Z,14.13
2019-02-23T21:56:21.593Z,11.30
2019-02-23T21:58:52.175Z,12.60
2019-02-23T22:01:21.802Z,12.90
2019-02-23T22:03:51.359Z,14.23
2019-02-23T22:06:20.852Z,10.25
2019-02-23T22:08:50.785Z,14.30
2019-02-23T22:11:20.501Z,12.93
2019-02-23T22:13:49.988Z,11.40
2019-02-23T22:16:19.583Z,11.00
2019-02-23T22:18:49.144Z,14.30
2019-02-23T22:21:18.829Z,15.85
2019-02-23T22:23:48.447Z,11.88
2019-02-23T22:26:17.885Z,14.50
2019-02-23T22:28:47.652Z,13.32
2019-02-23T22:31:17.109Z,12.63
2019-02-23T22:33:46.520Z,10.88
2019-02-23T22:36:16.049Z,12.78
2019-02-23T22:38:45.745Z,10.05
2019-02-23T22:41:15.583Z,12.13
2019-02-23T22:43:45.054Z,12.10
2019-02-23T22:46:14.504Z,13.80
2019-02-23T22:48:44.056Z,10.30
2019-02-23T22:51:13.706Z,12.13
2019-02-23T22:53:43.359Z,12.85
2019-02-23T22:56:13.015Z,10.03
2019-02-23T22:58:42.561Z,11.75
2019-02-23T23:01:12.262Z,10.85
2019-02-23T23:03:41.756Z,12.13
2019-02-23T23:06:11.452Z,11.95
2019-02-23T23:08:40.989Z,11.97
2019-02-23T23:11:10.415Z,11.78
2019-02-23T23:13:40.074Z,9.83
2019-02-23T23:16:09.770Z,9.88
2019-02-23T23:18:39.548Z,11.03
2019-02-23T23:21:09.115Z,12.05
2019-02-23T23:23:38.704Z,11.35
2019-02-23T23:26:08.260Z,10.13
2019-02-23T23:28:37.975Z,12.60
2019-02-23T23:31:07.503Z,10.82
2019-02-23T23:33:37.051Z,11.90
2019-02-23T23:36:06.651Z,11.85
2019-02-23T23:38:36.084Z,12.40
2019-02-23T23:41:05.669Z,11.65
2019-02-23T23:43:35.275Z,10.35
2019-02-23T23:46:04.741Z,13.25
2019-02-23T23:48:34.155Z,12.85
2019-02-23T23:51:04.052Z,14.93
2019-02-23T23:53:33.843Z,11.57
2019-02-23T23:56:03.294Z,11.70
2019-02-23T23:58:32.720Z,10.30
